createdAt,value
2023-03-26T00:01:36.861Z,9.50
2023-03-26T00:04:06.758Z,10.00
2023-03-26T00:06:39.997Z,8.30
2023-03-26T00:09:10.698Z,10.10
2023-03-26T00:11:38.622Z,9.10
2023-03-26T00:14:06.522Z,10.60
2023-03-26T00:16:34.423Z,9.60
2023-03-26T00:19:02.710Z,11.10
2023-03-26T00:21:30.747Z,11.60
2023-03-26T00:24:04.430Z,9.70
2023-03-26T00:26:34.073Z,8.80
2023-03-26T00:29:03.702Z,12.60
2023-03-26T00:31:31.845Z,8.20
2023-03-26T00:34:03.322Z,10.90
2023-03-26T00:36:31.250Z,8.60
2023-03-26T00:38:59.111Z,8.90
2023-03-26T00:41:31.082Z,10.50
2023-03-26T00:43:59.939Z,11.50
2023-03-26T00:46:30.760Z,10.40
2023-03-26T00:49:00.088Z,10.00
2023-03-26T00:51:28.354Z,9.00
2023-03-26T00:53:56.950Z,8.90
2023-03-26T00:56:25.114Z,10.20
2023-03-26T00:58:52.934Z,9.10
2023-03-26T01:01:30.573Z,9.30
2023-03-26T01:04:19.491Z,9.70
2023-03-26T01:06:47.437Z,9.80
2023-03-26T01:09:18.972Z,10.70
2023-03-26T01:11:48.547Z,7.40
2023-03-26T01:14:23.818Z,7.70
2023-03-26T01:16:55.349Z,8.60
2023-03-26T01:19:45.225Z,10.30
2023-03-26T01:22:20.993Z,8.20
2023-03-26T01:24:54.192Z,8.10
2023-03-26T01:27:25.711Z,7.60
2023-03-26T01:29:56.472Z,8.00
2023-03-26T01:32:33.605Z,7.40
2023-03-26T01:35:20.673Z,10.10
2023-03-26T01:38:39.458Z,9.50
2023-03-26T01:41:14.170Z,9.80
2023-03-26T01:44:16.709Z,8.30
2023-03-26T01:46:44.759Z,9.10
2023-03-26T01:49:15.638Z,8.00
2023-03-26T01:51:43.591Z,7.80
2023-03-26T01:54:16.963Z,8.30
2023-03-26T01:57:11.560Z,8.10
2023-03-26T01:59:57.618Z,7.30
2023-03-26T02:02:55.040Z,8.30
2023-03-26T02:05:36.151Z,7.10
2023-03-26T02:08:35.559Z,8.40
2023-03-26T02:11:11.755Z,7.70
2023-03-26T02:13:42.570Z,7.70
2023-03-26T02:16:18.717Z,7.30
2023-03-26T02:18:51.529Z,6.70
2023-03-26T02:21:21.900Z,6.40
2023-03-26T02:23:57.868Z,6.60
2023-03-26T02:26:26.033Z,7.20
2023-03-26T02:28:58.606Z,5.30
2023-03-26T02:31:26.838Z,6.00
2023-03-26T02:33:55.692Z,5.10
2023-03-26T02:36:27.601Z,6.30
2023-03-26T02:38:58.138Z,6.20
2023-03-26T02:41:26.384Z,6.60
2023-03-26T02:44:05.869Z,5.70
2023-03-26T02:46:52.587Z,7.50
2023-03-26T02:49:40.699Z,6.10
2023-03-26T02:52:09.157Z,6.70
2023-03-26T02:54:37.214Z,7.20
2023-03-26T02:57:34.220Z,7.70
2023-03-26T03:00:10.076Z,6.50
2023-03-26T03:02:38.870Z,6.90
2023-03-26T03:05:26.767Z,7.50
2023-03-26T03:08:13.493Z,6.60
2023-03-26T03:10:57.162Z,6.00
2023-03-26T03:13:36.467Z,6.70
2023-03-26T03:16:05.848Z,6.90
2023-03-26T03:18:33.767Z,5.00
2023-03-26T03:21:03.429Z,6.60
2023-03-26T03:23:31.601Z,8.60
2023-03-26T03:26:14.389Z,6.10
2023-03-26T03:28:45.145Z,5.70
2023-03-26T03:31:16.777Z,8.60
2023-03-26T03:33:46.553Z,5.90
2023-03-26T03:36:22.292Z,5.80
2023-03-26T03:39:02.730Z,6.10
2023-03-26T03:41:32.745Z,5.70
2023-03-26T03:44:02.479Z,4.80
2023-03-26T03:46:32.852Z,6.20
2023-03-26T03:49:01.256Z,6.30
2023-03-26T03:51:36.043Z,8.00
2023-03-26T03:54:28.343Z,7.30
2023-03-26T03:57:26.164Z,7.80
2023-03-26T04:00:00.438Z,7.50
2023-03-26T04:02:35.075Z,7.30
2023-03-26T04:05:06.167Z,7.00
2023-03-26T04:07:34.253Z,6.80
2023-03-26T04:10:09.433Z,5.50
2023-03-26T04:12:56.296Z,5.30
2023-03-26T04:15:38.634Z,6.10
2023-03-26T04:18:10.500Z,5.70
2023-03-26T04:20:46.840Z,7.50
2023-03-26T04:23:21.489Z,5.80
2023-03-26T04:25:54.000Z,5.40
2023-03-26T04:28:35.751Z,6.70
2023-03-26T04:31:24.685Z,7.30
2023-03-26T04:33:56.515Z,5.70
2023-03-26T04:36:28.752Z,5.10
2023-03-26T04:38:58.562Z,6.20
2023-03-26T04:41:44.064Z,5.20
2023-03-26T04:44:22.512Z,7.60
2023-03-26T04:47:03.686Z,6.70
2023-03-26T04:49:36.368Z,7.80
2023-03-26T04:52:04.573Z,5.90
2023-03-26T04:55:17.071Z,8.00
2023-03-26T04:57:57.850Z,6.60
2023-03-26T05:01:10.556Z,5.70
2023-03-26T05:03:41.518Z,6.30
2023-03-26T05:06:11.888Z,6.90
2023-03-26T05:08:39.743Z,6.10
2023-03-26T05:11:11.718Z,5.50
2023-03-26T05:13:42.975Z,7.40
2023-03-26T05:16:13.061Z,6.20
2023-03-26T05:18:46.874Z,6.00
2023-03-26T05:21:15.801Z,5.60
2023-03-26T05:23:43.950Z,5.50
2023-03-26T05:26:19.006Z,6.30
2023-03-26T05:28:46.931Z,10.50
2023-03-26T05:31:48.732Z,6.30
2023-03-26T05:34:16.907Z,5.80
2023-03-26T05:36:44.956Z,8.60
2023-03-26T05:39:41.434Z,6.20
2023-03-26T05:42:27.989Z,6.70
2023-03-26T05:45:11.205Z,7.50
2023-03-26T05:47:39.218Z,7.20
2023-03-26T05:50:08.280Z,8.10
2023-03-26T05:52:37.986Z,6.30
2023-03-26T05:55:24.539Z,7.10
2023-03-26T05:58:11.420Z,6.20
2023-03-26T06:01:08.737Z,7.50
2023-03-26T06:03:56.829Z,5.10
2023-03-26T06:06:28.576Z,7.40
2023-03-26T06:09:01.832Z,6.10
2023-03-26T06:11:32.095Z,6.10
2023-03-26T06:14:01.191Z,7.50
2023-03-26T06:16:35.464Z,5.80
2023-03-26T06:19:18.426Z,6.80
2023-03-26T06:21:49.400Z,6.50
2023-03-26T06:24:21.985Z,6.40
2023-03-26T06:27:08.635Z,7.90
2023-03-26T06:30:15.306Z,6.70
2023-03-26T06:32:53.597Z,5.20
2023-03-26T06:35:26.024Z,7.10
2023-03-26T06:37:54.310Z,5.70
2023-03-26T06:40:22.496Z,5.50
2023-03-26T06:43:13.690Z,7.00
2023-03-26T06:45:55.380Z,6.00
2023-03-26T06:48:46.672Z,5.30
2023-03-26T06:51:33.291Z,5.40
2023-03-26T06:54:20.532Z,5.80
2023-03-26T06:56:57.459Z,5.00
2023-03-26T06:59:44.100Z,3.50
2023-03-26T07:02:30.717Z,7.00
2023-03-26T07:05:17.468Z,6.20
2023-03-26T07:08:04.948Z,4.10
2023-03-26T07:10:56.209Z,5.20
2023-03-26T07:13:46.166Z,4.40
2023-03-26T07:16:47.028Z,4.80
2023-03-26T07:19:26.229Z,3.10
2023-03-26T07:21:54.701Z,4.20
2023-03-26T07:24:44.125Z,5.70
2023-03-26T07:27:44.722Z,3.40
2023-03-26T07:30:28.901Z,6.10
2023-03-26T07:33:31.928Z,3.00
2023-03-26T07:36:45.457Z,3.30
2023-03-26T07:39:42.372Z,4.20
2023-03-26T07:42:43.571Z,3.00
2023-03-26T07:45:44.408Z,4.00
2023-03-26T07:48:20.240Z,4.70
2023-03-26T07:51:07.675Z,5.80
2023-03-26T07:54:05.901Z,3.70
2023-03-26T07:56:58.033Z,4.10
2023-03-26T08:00:12.389Z,4.10
2023-03-26T08:03:04.900Z,3.80
2023-03-26T08:05:58.349Z,4.40
2023-03-26T08:09:38.816Z,3.80
2023-03-26T08:13:22.364Z,4.30
2023-03-26T08:16:08.249Z,5.10
2023-03-26T08:19:00.589Z,4.80
2023-03-26T08:21:39.723Z,4.50
2023-03-26T08:24:22.958Z,7.40
2023-03-26T08:27:10.102Z,7.70
2023-03-26T08:29:50.004Z,7.00
2023-03-26T08:32:19.334Z,6.30
2023-03-26T08:34:47.293Z,4.70
2023-03-26T08:37:15.612Z,6.00
2023-03-26T08:39:43.751Z,4.70
2023-03-26T08:42:39.565Z,4.00
2023-03-26T08:45:51.463Z,5.50
2023-03-26T08:48:22.496Z,3.90
2023-03-26T08:51:17.449Z,6.40
2023-03-26T08:54:10.139Z,5.10
2023-03-26T08:57:12.428Z,4.10
2023-03-26T08:59:59.714Z,6.60
2023-03-26T09:02:57.533Z,6.20
2023-03-26T09:06:10.133Z,4.70
2023-03-26T09:09:09.300Z,4.40
2023-03-26T09:12:18.326Z,5.20
2023-03-26T09:15:17.760Z,4.80
2023-03-26T09:18:10.127Z,5.50
2023-03-26T09:21:11.956Z,7.10
2023-03-26T09:24:27.818Z,7.40
2023-03-26T09:27:39.565Z,6.30
2023-03-26T09:30:26.790Z,5.30
2023-03-26T09:33:43.266Z,5.90
2023-03-26T09:36:33.549Z,4.10
2023-03-26T09:39:23.707Z,3.80
2023-03-26T09:42:15.642Z,8.20
2023-03-26T09:44:58.707Z,5.80
2023-03-26T09:48:28.069Z,4.40
2023-03-26T09:51:21.764Z,3.90
2023-03-26T09:54:18.232Z,4.40
2023-03-26T09:57:11.540Z,4.60
2023-03-26T10:00:13.596Z,4.70
2023-03-26T10:03:08.897Z,6.10
2023-03-26T10:05:55.470Z,7.40
2023-03-26T10:08:25.072Z,7.10
2023-03-26T10:11:22.957Z,5.80
2023-03-26T10:14:26.144Z,6.30
2023-03-26T10:17:35.810Z,4.20
2023-03-26T10:20:19.765Z,4.60
2023-03-26T10:23:14.087Z,6.00
2023-03-26T10:26:18.951Z,4.30
2023-03-26T10:29:08.306Z,4.80
2023-03-26T10:31:43.391Z,4.60
2023-03-26T10:34:28.118Z,5.50
2023-03-26T10:37:16.306Z,5.60
2023-03-26T10:40:02.066Z,5.60
2023-03-26T10:43:26.381Z,4.60
2023-03-26T10:46:31.926Z,3.90
2023-03-26T10:49:50.042Z,6.10
2023-03-26T10:52:23.605Z,5.60
2023-03-26T10:55:13.504Z,6.00
2023-03-26T10:57:58.259Z,4.90
2023-03-26T11:00:29.003Z,6.10
2023-03-26T11:03:24.475Z,4.80
2023-03-26T11:06:11.715Z,7.70
2023-03-26T11:08:49.813Z,3.60
2023-03-26T11:11:31.840Z,6.70
2023-03-26T11:14:02.423Z,6.80
2023-03-26T11:17:39.791Z,4.70
2023-03-26T11:20:31.278Z,3.10
2023-03-26T11:23:36.635Z,3.70
2023-03-26T11:26:14.236Z,4.20
2023-03-26T11:29:03.425Z,3.40
2023-03-26T11:32:11.793Z,3.70
2023-03-26T11:34:50.960Z,3.50
2023-03-26T11:37:27.516Z,2.80
2023-03-26T11:39:56.944Z,3.40
2023-03-26T11:42:25.573Z,4.00
2023-03-26T11:44:59.879Z,3.10
2023-03-26T11:47:59.732Z,4.20
2023-03-26T11:50:29.685Z,5.80
2023-03-26T11:52:59.349Z,4.40
2023-03-26T11:55:27.702Z,5.60
2023-03-26T11:57:57.463Z,5.30
2023-03-26T12:00:27.764Z,6.20
2023-03-26T12:02:58.159Z,4.90
2023-03-26T12:05:31.642Z,6.40
2023-03-26T12:08:04.425Z,6.60
2023-03-26T12:10:38.076Z,5.80
2023-03-26T12:13:30.484Z,6.00
2023-03-26T12:16:08.935Z,7.50
2023-03-26T12:18:37.237Z,5.80
2023-03-26T12:21:18.036Z,6.00
2023-03-26T12:24:04.650Z,6.30
2023-03-26T12:26:42.810Z,5.80
2023-03-26T12:29:13.548Z,5.30
2023-03-26T12:31:53.292Z,5.60
2023-03-26T12:34:43.037Z,5.00
2023-03-26T12:37:37.548Z,6.60
2023-03-26T12:40:35.908Z,6.80
2023-03-26T12:44:56.033Z,5.20
2023-03-26T12:47:45.834Z,6.40
2023-03-26T12:48:48.038Z,6.60
2023-03-26T12:51:38.228Z,6.60
2023-03-26T12:54:17.458Z,7.30
2023-03-26T12:57:11.737Z,5.10
2023-03-26T12:59:56.612Z,7.00
2023-03-26T13:03:01.626Z,7.70
2023-03-26T13:05:57.714Z,5.30
2023-03-26T13:09:05.084Z,5.50
2023-03-26T13:11:51.403Z,6.70
2023-03-26T13:14:34.794Z,5.00
2023-03-26T13:17:11.659Z,5.10
2023-03-26T13:19:48.151Z,4.30
2023-03-26T13:22:51.580Z,8.60
2023-03-26T13:25:34.882Z,8.10
2023-03-26T13:28:30.941Z,7.20
2023-03-26T13:31:23.858Z,6.70
2023-03-26T13:34:19.296Z,4.80
2023-03-26T13:37:00.605Z,4.90
2023-03-26T13:39:50.156Z,3.40
2023-03-26T13:42:42.930Z,4.00
2023-03-26T13:45:24.770Z,3.80
2023-03-26T13:47:55.509Z,4.90
2023-03-26T13:50:34.068Z,5.80
2023-03-26T13:53:24.886Z,4.00
2023-03-26T13:55:59.287Z,3.80
2023-03-26T13:58:42.541Z,3.70
2023-03-26T14:01:17.304Z,2.30
2023-03-26T14:04:08.309Z,5.40
2023-03-26T14:06:54.173Z,5.90
2023-03-26T14:09:30.671Z,4.50
2023-03-26T14:12:35.318Z,5.10
2023-03-26T14:15:10.885Z,4.60
2023-03-26T14:17:48.783Z,2.70
2023-03-26T14:20:22.441Z,5.10
2023-03-26T14:23:25.742Z,3.70
2023-03-26T14:26:14.804Z,4.80
2023-03-26T14:29:04.590Z,4.60
2023-03-26T14:31:49.714Z,5.90
2023-03-26T14:34:42.832Z,4.00
2023-03-26T14:37:53.793Z,5.90
2023-03-26T14:40:33.855Z,6.00
2023-03-26T14:43:18.526Z,5.80
2023-03-26T14:46:27.585Z,4.90
2023-03-26T14:49:26.633Z,6.30
2023-03-26T14:52:27.586Z,7.00
2023-03-26T14:54:58.025Z,7.00
2023-03-26T14:58:16.025Z,6.20
2023-03-26T15:01:13.338Z,7.60
2023-03-26T15:04:25.115Z,6.20
2023-03-26T15:07:27.722Z,6.60
2023-03-26T15:10:25.618Z,5.70
2023-03-26T15:13:36.721Z,6.60
2023-03-26T15:16:28.123Z,6.90
2023-03-26T15:19:40.972Z,7.50
2023-03-26T15:22:28.026Z,7.00
2023-03-26T15:25:43.711Z,7.00
2023-03-26T15:28:46.566Z,5.30
2023-03-26T15:31:40.950Z,4.90
2023-03-26T15:34:39.967Z,6.40
2023-03-26T15:37:50.358Z,5.80
2023-03-26T15:40:36.723Z,8.00
2023-03-26T15:43:20.200Z,6.10
2023-03-26T15:45:53.934Z,6.00
2023-03-26T15:48:36.678Z,5.70
2023-03-26T15:51:46.888Z,5.00
2023-03-26T15:54:22.871Z,6.10
2023-03-26T15:57:44.324Z,4.10
2023-03-26T16:00:19.241Z,4.90
2023-03-26T16:03:11.834Z,5.90
2023-03-26T16:06:31.147Z,6.70
2023-03-26T16:09:45.733Z,6.00
2023-03-26T16:12:16.761Z,5.70
2023-03-26T16:15:05.803Z,6.20
2023-03-26T16:18:25.575Z,10.00
2023-03-26T16:21:38.931Z,9.80
2023-03-26T16:24:07.440Z,9.50
2023-03-26T16:26:44.281Z,9.20
2023-03-26T16:29:26.817Z,7.90
2023-03-26T16:32:18.989Z,7.60
2023-03-26T16:35:02.116Z,8.70
2023-03-26T16:37:39.910Z,9.20
2023-03-26T16:40:17.199Z,9.70
2023-03-26T16:42:51.798Z,12.00
2023-03-26T16:45:57.389Z,10.60
2023-03-26T16:49:10.680Z,10.40
2023-03-26T16:52:20.593Z,8.60
2023-03-26T16:55:11.555Z,8.10
2023-03-26T16:57:53.147Z,9.30
2023-03-26T17:00:49.649Z,9.00
2023-03-26T17:03:38.857Z,9.40
2023-03-26T17:06:20.981Z,9.20
2023-03-26T17:09:23.614Z,8.60
2023-03-26T17:12:56.296Z,10.10
2023-03-26T17:15:53.540Z,9.30
2023-03-26T17:18:43.630Z,9.50
2023-03-26T17:21:46.744Z,7.70
2023-03-26T17:24:40.736Z,7.20
2023-03-26T17:27:58.760Z,8.40
2023-03-26T17:30:54.851Z,9.40
2023-03-26T17:33:31.272Z,10.90
2023-03-26T17:36:41.222Z,9.60
2023-03-26T17:39:21.583Z,9.30
2023-03-26T17:41:54.440Z,13.30
2023-03-26T17:44:44.168Z,12.70
2023-03-26T17:47:22.668Z,15.10
2023-03-26T17:49:55.510Z,19.50
2023-03-26T17:52:51.939Z,17.00
2023-03-26T17:55:22.216Z,15.00
2023-03-26T17:57:53.688Z,13.10
2023-03-26T18:00:25.309Z,12.30
2023-03-26T18:02:57.313Z,16.70
2023-03-26T18:05:29.160Z,15.90
2023-03-26T18:08:37.219Z,10.50
2023-03-26T18:11:38.168Z,11.80
2023-03-26T18:14:47.652Z,16.00
2023-03-26T18:17:15.445Z,16.50
2023-03-26T18:19:52.483Z,19.40
2023-03-26T18:22:24.778Z,26.10
2023-03-26T18:24:56.100Z,41.60
2023-03-26T18:27:24.033Z,26.40
2023-03-26T18:30:01.656Z,19.80
2023-03-26T18:32:33.669Z,16.10
2023-03-26T18:35:18.783Z,15.50
2023-03-26T18:37:49.247Z,18.60
2023-03-26T18:40:21.501Z,28.00
2023-03-26T18:42:55.342Z,28.90
2023-03-26T18:45:23.404Z,38.70
2023-03-26T18:47:57.316Z,58.00
2023-03-26T18:50:37.232Z,82.80
2023-03-26T18:53:21.061Z,91.20
2023-03-26T18:55:50.652Z,66.70
2023-03-26T18:58:34.440Z,54.30
2023-03-26T19:01:04.969Z,47.80
2023-03-26T19:03:35.628Z,43.40
2023-03-26T19:06:04.759Z,45.00
2023-03-26T19:08:35.461Z,42.70
2023-03-26T19:11:04.942Z,37.80
2023-03-26T19:13:33.735Z,36.90
2023-03-26T19:16:06.129Z,62.80
2023-03-26T19:18:36.279Z,72.90
2023-03-26T19:21:04.648Z,67.90
2023-03-26T19:23:36.297Z,80.00
2023-03-26T19:26:06.734Z,83.80
2023-03-26T19:28:49.310Z,89.70
2023-03-26T19:31:22.529Z,82.80
2023-03-26T19:33:59.701Z,77.20
2023-03-26T19:36:31.755Z,83.90
2023-03-26T19:38:59.646Z,82.00
2023-03-26T19:41:36.636Z,91.80
2023-03-26T19:44:28.651Z,165.00
2023-03-26T19:47:31.843Z,178.90
2023-03-26T19:50:23.431Z,162.30
2023-03-26T19:53:17.722Z,135.50
2023-03-26T19:55:56.568Z,133.70
2023-03-26T19:58:27.482Z,137.80
2023-03-26T20:00:58.860Z,106.20
2023-03-26T20:03:30.595Z,107.00
2023-03-26T20:05:59.644Z,99.40
2023-03-26T20:08:27.984Z,102.70
2023-03-26T20:10:56.682Z,103.50
2023-03-26T20:13:24.691Z,87.40
2023-03-26T20:16:06.027Z,88.20
2023-03-26T20:18:35.143Z,84.50
2023-03-26T20:21:10.863Z,64.60
2023-03-26T20:23:40.366Z,70.20
2023-03-26T20:26:15.889Z,61.10
2023-03-26T20:28:48.374Z,63.70
2023-03-26T20:31:25.363Z,60.40
2023-03-26T20:33:53.892Z,67.70
2023-03-26T20:36:33.648Z,57.50
2023-03-26T20:39:07.821Z,57.00
2023-03-26T20:41:38.224Z,57.90
2023-03-26T20:44:13.721Z,54.00
2023-03-26T20:46:43.423Z,57.50
2023-03-26T20:49:11.952Z,49.60
2023-03-26T20:51:41.992Z,47.40
2023-03-26T20:54:24.344Z,52.80
2023-03-26T20:56:53.517Z,48.20
2023-03-26T20:59:28.840Z,61.30
2023-03-26T21:01:57.812Z,53.60
2023-03-26T21:04:26.741Z,51.30
2023-03-26T21:07:00.239Z,55.60
2023-03-26T21:09:35.778Z,55.80
2023-03-26T21:12:28.137Z,62.20
2023-03-26T21:14:57.272Z,59.90
2023-03-26T21:17:26.334Z,69.60
2023-03-26T21:19:55.027Z,82.00
2023-03-26T21:22:49.532Z,90.20
2023-03-26T21:25:53.286Z,80.00
2023-03-26T21:28:42.505Z,69.60
2023-03-26T21:31:20.484Z,67.10
2023-03-26T21:33:49.565Z,71.50
2023-03-26T21:36:19.907Z,64.10
2023-03-26T21:38:50.613Z,62.10
2023-03-26T21:41:24.455Z,73.60
2023-03-26T21:43:52.328Z,69.60
2023-03-26T21:46:20.796Z,61.90
2023-03-26T21:48:49.133Z,65.30
2023-03-26T21:51:17.821Z,62.70
2023-03-26T21:53:46.600Z,54.60
2023-03-26T21:56:39.584Z,47.10
2023-03-26T21:59:36.758Z,52.40
2023-03-26T22:02:24.211Z,54.50
2023-03-26T22:04:57.260Z,48.80
2023-03-26T22:07:53.405Z,49.70
2023-03-26T22:10:21.620Z,60.50
2023-03-26T22:12:49.613Z,73.40
2023-03-26T22:15:18.579Z,63.20
2023-03-26T22:17:54.154Z,64.40
2023-03-26T22:20:25.212Z,72.50
2023-03-26T22:22:55.358Z,67.30
2023-03-26T22:25:23.730Z,65.10
2023-03-26T22:27:51.747Z,62.00
2023-03-26T22:30:23.028Z,61.30
2023-03-26T22:32:51.929Z,67.80
2023-03-26T22:35:19.893Z,61.80
2023-03-26T22:37:48.498Z,64.20
2023-03-26T22:40:18.006Z,64.20
2023-03-26T22:42:46.170Z,61.60
2023-03-26T22:45:14.121Z,52.50
2023-03-26T22:47:42.210Z,54.40
2023-03-26T22:50:10.875Z,54.10
2023-03-26T22:52:40.794Z,52.30
2023-03-26T22:55:11.049Z,41.90
2023-03-26T22:57:39.431Z,40.10
2023-03-26T23:00:19.726Z,35.70
2023-03-26T23:02:47.616Z,39.50
2023-03-26T23:05:18.778Z,41.70
2023-03-26T23:07:46.653Z,38.00
2023-03-26T23:10:14.541Z,39.10
2023-03-26T23:12:42.537Z,36.20
2023-03-26T23:15:11.288Z,35.30
2023-03-26T23:17:39.538Z,38.50
2023-03-26T23:20:15.379Z,36.80
2023-03-26T23:22:43.984Z,35.00
2023-03-26T23:25:11.914Z,36.00
2023-03-26T23:27:41.597Z,38.80
2023-03-26T23:30:11.046Z,39.30
2023-03-26T23:32:39.044Z,44.40
2023-03-26T23:35:07.534Z,41.40
2023-03-26T23:37:35.577Z,39.40
2023-03-26T23:40:10.263Z,39.20
2023-03-26T23:42:38.401Z,44.80
2023-03-26T23:45:08.513Z,50.70
2023-03-26T23:47:37.359Z,50.50
2023-03-26T23:50:06.382Z,56.10
2023-03-26T23:52:34.118Z,60.00
2023-03-26T23:55:02.145Z,51.40
2023-03-26T23:57:30.655Z,50.10
2023-03-26T23:59:58.487Z,44.70
